createdAt,value
2022-09-21T00:03:38.702Z,100788.77
2022-09-21T00:08:46.033Z,100786.30
2022-09-21T00:13:55.185Z,100783.23
2022-09-21T00:19:01.224Z,100779.98
2022-09-21T00:24:08.118Z,100778.91
2022-09-21T00:29:14.049Z,100781.11
2022-09-21T00:34:19.918Z,100783.58
2022-09-21T00:39:25.918Z,100786.02
2022-09-21T00:44:33.316Z,100786.42
2022-09-21T00:49:40.033Z,100790.00
2022-09-21T00:54:50.606Z,100792.50
2022-09-21T01:00:01.354Z,100792.17
2022-09-21T01:05:10.085Z,100788.00
2022-09-21T01:10:18.524Z,100786.31
2022-09-21T01:15:35.110Z,100789.86
2022-09-21T01:21:23.061Z,100788.96
2022-09-21T01:26:44.960Z,100794.89
2022-09-21T01:31:56.516Z,100797.73
2022-09-21T01:37:08.468Z,100802.86
2022-09-21T01:42:17.789Z,100806.98
2022-09-21T01:47:25.262Z,100810.18
2022-09-21T01:52:36.249Z,100813.93
2022-09-21T01:57:49.987Z,100816.50
2022-09-21T02:03:00.433Z,100820.80
2022-09-21T02:08:07.575Z,100820.77
2022-09-21T02:13:16.713Z,100822.17
2022-09-21T02:18:35.886Z,100826.71
2022-09-21T02:23:52.973Z,100824.64
2022-09-21T02:29:07.657Z,100824.40
2022-09-21T02:34:21.853Z,100825.06
2022-09-21T02:39:35.528Z,100817.07
2022-09-21T02:44:45.726Z,100819.63
2022-09-21T02:49:56.604Z,100828.98
2022-09-21T02:55:04.087Z,100831.37
2022-09-21T03:00:12.608Z,100835.32
2022-09-21T03:05:18.342Z,100835.34
2022-09-21T03:10:24.159Z,100836.73
2022-09-21T03:15:29.949Z,100839.14
2022-09-21T03:20:36.590Z,100845.73
2022-09-21T03:25:48.223Z,100847.29
2022-09-21T03:30:54.433Z,100849.81
2022-09-21T03:36:00.333Z,100848.53
2022-09-21T03:41:07.127Z,100852.53
2022-09-21T03:46:13.219Z,100852.83
2022-09-21T03:51:18.959Z,100853.83
2022-09-21T03:56:24.752Z,100859.48
2022-09-21T04:01:31.341Z,100862.89
2022-09-21T04:06:37.383Z,100864.39
2022-09-21T04:11:44.649Z,100863.70
2022-09-21T04:16:52.068Z,100869.90
2022-09-21T04:21:58.727Z,100874.04
2022-09-21T04:27:09.936Z,100875.92
2022-09-21T04:32:17.825Z,100879.84
2022-09-21T04:37:23.537Z,100884.14
2022-09-21T04:42:29.271Z,100889.13
2022-09-21T04:47:35.051Z,100895.11
2022-09-21T04:52:40.814Z,100895.20
2022-09-21T04:57:46.561Z,100898.82
2022-09-21T05:02:52.345Z,100903.69
2022-09-21T05:07:58.094Z,100906.06
2022-09-21T05:13:03.898Z,100906.45
2022-09-21T05:18:09.979Z,100911.64
2022-09-21T05:23:16.908Z,100916.13
2022-09-21T05:28:23.576Z,100923.39
2022-09-21T05:33:32.761Z,100928.42
2022-09-21T05:38:39.544Z,100930.38
2022-09-21T05:43:46.267Z,100936.29
2022-09-21T05:48:59.915Z,100936.11
2022-09-21T05:54:15.466Z,100945.58
2022-09-21T05:59:42.954Z,100948.61
2022-09-21T06:04:50.601Z,100951.55
2022-09-21T06:09:56.340Z,100951.43
2022-09-21T06:15:02.109Z,100951.44
2022-09-21T06:20:09.782Z,100955.15
2022-09-21T06:25:43.324Z,100959.73
2022-09-21T06:30:54.192Z,100966.82
2022-09-21T06:36:00.670Z,100970.50
2022-09-21T06:41:06.975Z,100973.70
2022-09-21T06:50:22.486Z,100978.90
2022-09-21T06:55:29.405Z,100979.71
2022-09-21T07:00:35.261Z,100983.38
2022-09-21T07:05:44.750Z,100991.27
2022-09-21T07:10:51.063Z,100988.02
2022-09-21T07:15:57.056Z,100991.69
2022-09-21T07:21:05.409Z,100998.86
2022-09-21T07:26:13.393Z,100996.29
2022-09-21T07:31:19.271Z,100995.23
2022-09-21T07:36:25.251Z,101002.98
2022-09-21T07:41:31.274Z,101003.69
2022-09-21T07:46:39.105Z,101000.54
2022-09-21T07:51:47.106Z,101005.61
2022-09-21T07:57:11.732Z,101006.96
2022-09-21T08:02:17.711Z,101013.31
2022-09-21T08:07:23.925Z,101015.00
2022-09-21T08:12:29.996Z,101022.20
2022-09-21T08:17:37.485Z,101027.66
2022-09-21T08:22:43.314Z,101029.11
2022-09-21T08:27:49.255Z,101032.17
2022-09-21T08:32:57.013Z,101030.20
2022-09-21T08:38:02.984Z,101029.58
2022-09-21T08:43:13.870Z,101030.95
2022-09-21T08:48:24.046Z,101034.25
2022-09-21T08:53:36.645Z,101034.99
2022-09-21T08:58:43.600Z,101030.59
2022-09-21T09:04:08.697Z,101033.92
2022-09-21T09:09:33.594Z,101037.58
2022-09-21T09:14:56.207Z,101038.54
2022-09-21T09:20:06.434Z,101035.99
2022-09-21T09:25:21.420Z,101033.22
2022-09-21T09:30:30.710Z,101030.25
2022-09-21T09:35:44.674Z,101030.27
2022-09-21T09:41:21.217Z,101031.13
2022-09-21T09:46:35.420Z,101025.58
2022-09-21T09:51:42.938Z,101024.69
2022-09-21T09:56:48.746Z,101029.89
2022-09-21T10:02:04.540Z,101037.48
2022-09-21T10:07:19.838Z,101037.55
2022-09-21T10:12:28.098Z,101032.08
2022-09-21T10:17:34.249Z,101031.44
2022-09-21T10:22:40.558Z,101039.89
2022-09-21T10:27:50.829Z,101039.93
2022-09-21T10:32:58.393Z,101039.35
2022-09-21T10:38:22.121Z,101031.57
2022-09-21T10:43:35.932Z,101030.42
2022-09-21T10:48:46.486Z,101032.96
2022-09-21T10:53:54.450Z,101036.52
2022-09-21T10:59:21.989Z,101029.73
2022-09-21T11:04:49.551Z,101027.31
2022-09-21T11:10:03.695Z,101030.91
2022-09-21T11:15:23.853Z,101029.95
2022-09-21T11:20:36.545Z,101027.08
2022-09-21T11:25:48.452Z,101025.27
2022-09-21T11:31:12.799Z,101022.65
2022-09-21T11:36:27.025Z,101020.55
2022-09-21T11:41:58.590Z,101011.85
2022-09-21T11:47:16.585Z,101010.19
2022-09-21T11:52:36.817Z,101008.55
2022-09-21T11:57:52.857Z,101007.52
2022-09-21T12:03:50.729Z,101003.23
2022-09-21T12:09:17.921Z,101002.98
2022-09-21T12:19:52.109Z,100989.97
2022-09-21T12:25:04.292Z,100992.67
2022-09-21T12:30:16.986Z,100981.33
2022-09-21T12:35:28.888Z,100976.45
2022-09-21T12:40:43.419Z,100972.33
2022-09-21T12:45:55.192Z,100974.04
2022-09-21T12:51:06.486Z,100970.75
2022-09-21T12:56:21.251Z,100972.41
2022-09-21T13:01:33.274Z,100965.69
2022-09-21T13:07:08.267Z,100966.88
2022-09-21T13:12:21.440Z,100969.44
2022-09-21T13:17:31.468Z,100973.59
2022-09-21T13:22:39.970Z,100971.98
2022-09-21T13:28:17.264Z,100977.01
2022-09-21T13:33:37.821Z,100983.98
2022-09-21T13:39:13.808Z,100987.14
2022-09-21T13:44:43.340Z,100982.02
2022-09-21T13:49:55.888Z,100978.30
2022-09-21T13:55:16.092Z,100978.00
2022-09-21T14:00:37.615Z,100978.90
2022-09-21T14:05:46.407Z,100975.48
2022-09-21T14:10:56.833Z,100979.82
2022-09-21T14:16:47.625Z,100986.50
2022-09-21T14:22:06.248Z,100988.60
2022-09-21T14:27:19.334Z,100993.86
2022-09-21T14:32:28.544Z,100990.91
2022-09-21T14:37:37.840Z,100985.27
2022-09-21T14:42:44.443Z,100983.87
2022-09-21T14:48:08.998Z,100988.04
2022-09-21T14:53:42.538Z,100987.46
2022-09-21T14:59:07.638Z,100987.80
2022-09-21T15:04:31.506Z,100987.69
2022-09-21T15:10:29.928Z,100984.15
2022-09-21T15:15:41.426Z,100986.80
2022-09-21T15:20:54.217Z,100988.98
2022-09-21T15:26:04.620Z,100989.66
2022-09-21T15:31:12.438Z,100991.21
2022-09-21T15:36:24.236Z,100996.67
2022-09-21T15:41:45.477Z,101003.66
2022-09-21T15:46:58.039Z,101003.52
2022-09-21T15:52:11.550Z,101004.30
2022-09-21T15:57:40.507Z,101018.17
2022-09-21T16:03:04.834Z,101024.98
2022-09-21T16:08:22.641Z,101027.59
2022-09-21T16:13:52.560Z,101035.35
2022-09-21T16:19:02.231Z,101041.92
2022-09-21T16:24:19.001Z,101044.93
2022-09-21T16:29:26.798Z,101045.73
2022-09-21T16:34:36.818Z,101049.86
2022-09-21T16:39:42.678Z,101054.30
2022-09-21T16:44:49.458Z,101054.65
2022-09-21T16:49:57.790Z,101054.12
2022-09-21T16:55:03.958Z,101056.04
2022-09-21T17:00:14.418Z,101063.27
2022-09-21T17:05:20.642Z,101066.09
2022-09-21T17:10:31.847Z,101061.90
2022-09-21T17:15:36.513Z,101064.54
2022-09-21T17:20:45.280Z,101068.26
2022-09-21T17:25:52.515Z,101079.45
2022-09-21T17:30:59.037Z,101086.02
2022-09-21T17:36:07.958Z,101089.33
2022-09-21T17:41:24.360Z,101089.72
2022-09-21T17:46:40.910Z,101090.96
2022-09-21T17:52:06.008Z,101092.53
2022-09-21T17:57:29.717Z,101095.19
2022-09-21T18:02:36.011Z,101098.23
2022-09-21T18:07:42.704Z,101101.90
2022-09-21T18:13:07.002Z,101106.14
2022-09-21T18:18:19.764Z,101106.59
2022-09-21T18:23:33.266Z,101107.30
2022-09-21T18:28:43.991Z,101113.75
2022-09-21T18:33:56.719Z,101115.38
2022-09-21T18:39:18.357Z,101114.74
2022-09-21T18:44:32.271Z,101119.16
2022-09-21T18:49:54.430Z,101121.27
2022-09-21T18:55:00.897Z,101122.61
2022-09-21T19:00:11.411Z,101118.90
2022-09-21T19:05:19.893Z,101116.99
2022-09-21T19:10:32.781Z,101119.20
2022-09-21T19:16:00.209Z,101116.96
2022-09-21T19:21:18.241Z,101120.58
2022-09-21T19:26:29.750Z,101119.19
2022-09-21T19:31:36.510Z,101118.65
2022-09-21T19:36:42.918Z,101116.70
2022-09-21T19:42:04.111Z,101116.83
2022-09-21T19:47:17.072Z,101112.51
2022-09-21T19:52:28.488Z,101115.91
2022-09-21T19:58:14.608Z,101116.18
2022-09-21T20:03:31.310Z,101116.50
2022-09-21T20:08:46.136Z,101115.45
2022-09-21T20:14:18.090Z,101116.33
2022-09-21T20:19:37.866Z,101117.73
2022-09-21T20:24:54.160Z,101117.93
2022-09-21T20:30:00.042Z,101120.61
2022-09-21T20:35:14.385Z,101120.86
2022-09-21T20:40:24.874Z,101119.23
2022-09-21T20:45:32.405Z,101120.98
2022-09-21T20:50:40.576Z,101124.45
2022-09-21T20:55:54.680Z,101122.49
2022-09-21T21:01:06.888Z,101119.88
2022-09-21T21:06:15.078Z,101119.02
2022-09-21T21:11:21.535Z,101118.70
2022-09-21T21:16:27.403Z,101115.18
2022-09-21T21:21:34.524Z,101115.08
2022-09-21T21:27:03.204Z,101120.98
2022-09-21T21:32:06.625Z,101120.20
2022-09-21T21:37:13.577Z,101120.30
2022-09-21T21:42:20.617Z,101117.95
2022-09-21T21:47:41.835Z,101120.11
2022-09-21T21:52:48.877Z,101122.66
2022-09-21T21:57:54.569Z,101120.89
2022-09-21T22:03:00.425Z,101117.69
2022-09-21T22:08:06.730Z,101119.07
2022-09-21T22:13:12.569Z,101121.34
2022-09-21T22:18:18.435Z,101121.73
2022-09-21T22:23:24.201Z,101125.21
2022-09-21T22:28:30.000Z,101127.80
2022-09-21T22:33:37.465Z,101124.70
2022-09-21T22:38:43.674Z,101119.71
2022-09-21T22:43:51.166Z,101123.92
2022-09-21T22:48:57.143Z,101121.02
2022-09-21T22:54:03.364Z,101126.77
2022-09-21T22:59:09.656Z,101126.15
2022-09-21T23:04:15.645Z,101125.86
2022-09-21T23:09:22.441Z,101127.44
2022-09-21T23:14:28.186Z,101127.11
2022-09-21T23:19:34.185Z,101125.42
2022-09-21T23:24:40.154Z,101125.64
2022-09-21T23:29:45.834Z,101127.24
2022-09-21T23:34:51.612Z,101127.96
2022-09-21T23:39:57.277Z,101126.09
2022-09-21T23:45:03.182Z,101126.27
2022-09-21T23:50:10.659Z,101128.00
2022-09-21T23:55:16.490Z,101122.13
